createdAt,value
2022-09-15T00:02:01.177Z,25.80
2022-09-15T00:04:30.698Z,25.80
2022-09-15T00:07:03.037Z,25.80
2022-09-15T00:09:32.290Z,25.90
2022-09-15T00:12:01.414Z,25.90
2022-09-15T00:14:30.691Z,25.90
2022-09-15T00:17:00.024Z,26.00
2022-09-15T00:19:29.327Z,26.00
2022-09-15T00:21:58.624Z,26.00
2022-09-15T00:24:27.906Z,26.10
2022-09-15T00:26:57.814Z,26.10
2022-09-15T00:29:27.091Z,26.10
2022-09-15T00:31:56.311Z,26.20
2022-09-15T00:34:25.618Z,26.20
2022-09-15T00:36:54.840Z,26.20
2022-09-15T00:39:24.114Z,26.30
2022-09-15T00:41:53.551Z,26.30
2022-09-15T00:45:00.412Z,26.40
2022-09-15T00:47:40.045Z,26.40
2022-09-15T00:50:18.500Z,26.50
2022-09-15T00:52:56.722Z,26.50
2022-09-15T00:55:37.394Z,26.60
2022-09-15T00:58:14.192Z,26.60
2022-09-15T01:00:58.381Z,26.70
2022-09-15T01:03:31.436Z,26.70
2022-09-15T01:06:17.799Z,26.80
2022-09-15T01:09:22.325Z,26.80
2022-09-15T01:11:52.023Z,26.90
2022-09-15T01:14:21.352Z,26.90
2022-09-15T01:17:42.346Z,27.00
2022-09-15T01:21:01.733Z,27.10
2022-09-15T01:24:15.304Z,27.10
2022-09-15T01:27:40.496Z,27.20
2022-09-15T01:30:21.006Z,27.30
2022-09-15T01:33:34.276Z,27.30
2022-09-15T01:36:29.287Z,27.40
2022-09-15T01:39:25.355Z,27.40
2022-09-15T01:42:17.225Z,27.40
2022-09-15T01:44:57.010Z,27.40
2022-09-15T01:47:31.414Z,27.50
2022-09-15T01:50:13.055Z,27.50
2022-09-15T01:52:50.283Z,27.60
2022-09-15T01:55:40.199Z,27.60
2022-09-15T01:58:10.262Z,27.70
2022-09-15T02:00:49.893Z,27.70
2022-09-15T02:03:38.843Z,27.70
2022-09-15T02:06:37.125Z,27.80
2022-09-15T02:09:23.861Z,27.80
2022-09-15T02:12:23.609Z,27.90
2022-09-15T02:15:30.247Z,28.00
2022-09-15T02:18:06.626Z,28.00
2022-09-15T02:21:08.804Z,28.10
2022-09-15T02:23:56.288Z,28.20
2022-09-15T02:26:30.550Z,28.20
2022-09-15T02:29:07.094Z,28.20
2022-09-15T02:31:44.395Z,28.30
2022-09-15T02:34:26.999Z,28.40
2022-09-15T02:37:00.198Z,28.40
2022-09-15T02:39:39.878Z,28.50
2022-09-15T02:42:09.516Z,28.50
2022-09-15T02:44:40.231Z,28.60
2022-09-15T02:47:12.415Z,28.60
2022-09-15T02:49:47.400Z,28.70
2022-09-15T02:52:17.081Z,28.70
2022-09-15T02:54:50.684Z,28.70
2022-09-15T02:57:21.171Z,28.80
2022-09-15T03:00:03.235Z,28.80
2022-09-15T03:02:34.024Z,28.80
2022-09-15T03:05:03.968Z,28.90
2022-09-15T03:07:33.168Z,28.90
2022-09-15T03:10:02.484Z,29.00
2022-09-15T03:12:31.669Z,29.10
2022-09-15T03:15:00.919Z,29.10
2022-09-15T03:17:30.155Z,29.20
2022-09-15T03:19:59.357Z,29.20
2022-09-15T03:22:28.619Z,29.20
2022-09-15T03:24:57.836Z,29.20
2022-09-15T03:27:27.117Z,29.30
2022-09-15T03:29:56.694Z,29.30
2022-09-15T03:32:28.948Z,29.40
2022-09-15T03:34:58.709Z,29.50
2022-09-15T03:37:28.804Z,29.50
2022-09-15T03:39:58.181Z,29.60
2022-09-15T03:42:27.843Z,29.60
2022-09-15T03:44:57.057Z,29.70
2022-09-15T03:47:26.256Z,29.70
2022-09-15T03:49:56.382Z,29.80
2022-09-15T03:52:25.891Z,29.90
2022-09-15T03:54:55.145Z,30.00
2022-09-15T03:57:24.515Z,30.00
2022-09-15T03:59:53.758Z,30.10
2022-09-15T04:02:22.934Z,30.10
2022-09-15T04:04:52.153Z,30.20
2022-09-15T04:07:21.860Z,30.20
2022-09-15T04:09:51.154Z,30.30
2022-09-15T04:12:20.396Z,30.40
2022-09-15T04:14:49.684Z,30.50
2022-09-15T04:17:18.965Z,30.60
2022-09-15T04:19:48.076Z,30.60
2022-09-15T04:22:18.063Z,30.70
2022-09-15T04:24:49.272Z,30.70
2022-09-15T04:27:19.476Z,30.70
2022-09-15T04:29:53.274Z,30.70
2022-09-15T04:32:23.143Z,30.80
2022-09-15T04:34:52.371Z,30.80
2022-09-15T04:37:21.699Z,30.80
2022-09-15T04:39:51.140Z,30.90
2022-09-15T04:42:22.783Z,30.90
2022-09-15T04:44:52.591Z,30.90
2022-09-15T04:47:21.997Z,30.90
2022-09-15T04:49:54.536Z,30.90
2022-09-15T04:52:23.927Z,31.00
2022-09-15T04:54:53.203Z,31.00
2022-09-15T04:57:22.389Z,31.10
2022-09-15T04:59:51.672Z,31.20
2022-09-15T05:02:21.018Z,31.30
2022-09-15T05:04:52.710Z,31.40
2022-09-15T05:07:23.041Z,31.50
2022-09-15T05:09:52.481Z,31.60
2022-09-15T05:12:21.706Z,31.70
2022-09-15T05:14:50.998Z,31.80
2022-09-15T05:17:22.265Z,31.90
2022-09-15T05:19:53.322Z,32.10
2022-09-15T05:22:22.513Z,32.20
2022-09-15T05:24:51.616Z,32.40
2022-09-15T05:30:37.789Z,32.60
2022-09-15T05:33:08.856Z,32.60
2022-09-15T05:35:38.083Z,32.60
2022-09-15T05:38:07.393Z,32.50
2022-09-15T05:40:36.610Z,32.50
2022-09-15T05:43:05.895Z,32.50
2022-09-15T05:45:35.801Z,32.50
2022-09-15T05:48:06.437Z,32.40
2022-09-15T05:50:35.612Z,32.40
2022-09-15T05:53:06.296Z,32.40
2022-09-15T05:55:39.832Z,32.40
2022-09-15T05:58:09.115Z,32.40
2022-09-15T06:00:39.038Z,32.40
2022-09-15T06:03:08.677Z,32.30
2022-09-15T06:05:38.023Z,32.20
2022-09-15T06:08:07.354Z,32.20
2022-09-15T06:10:36.748Z,32.20
2022-09-15T06:13:06.158Z,32.20
2022-09-15T06:15:35.425Z,32.10
2022-09-15T06:18:04.776Z,32.10
2022-09-15T06:20:33.994Z,32.10
2022-09-15T06:23:03.069Z,32.00
2022-09-15T06:25:32.272Z,31.90
2022-09-15T06:28:01.830Z,31.90
2022-09-15T06:30:31.271Z,31.80
2022-09-15T06:33:00.629Z,31.60
2022-09-15T06:35:29.798Z,31.50
2022-09-15T06:37:58.900Z,31.20
2022-09-15T06:40:28.276Z,30.70
2022-09-15T06:42:58.254Z,30.30
2022-09-15T06:45:27.779Z,29.80
2022-09-15T06:48:20.311Z,29.50
2022-09-15T06:50:46.385Z,29.20
2022-09-15T06:53:15.541Z,28.90
2022-09-15T06:55:44.626Z,28.80
2022-09-15T06:58:13.923Z,28.60
2022-09-15T07:00:44.084Z,28.50
2022-09-15T07:03:13.404Z,28.30
2022-09-15T07:05:43.117Z,28.20
2022-09-15T07:08:12.223Z,28.00
2022-09-15T07:10:46.006Z,28.00
2022-09-15T07:13:15.448Z,28.00
2022-09-15T07:15:57.418Z,27.90
2022-09-15T07:18:27.628Z,27.90
2022-09-15T07:21:09.494Z,27.90
2022-09-15T07:23:38.924Z,27.80
2022-09-15T07:26:22.629Z,27.80
2022-09-15T07:28:56.701Z,27.80
2022-09-15T07:31:29.824Z,27.70
2022-09-15T07:34:00.918Z,27.70
2022-09-15T07:36:31.425Z,27.70
2022-09-15T07:39:00.732Z,27.70
2022-09-15T07:41:32.863Z,27.70
2022-09-15T07:44:03.363Z,27.70
2022-09-15T07:46:34.582Z,27.60
2022-09-15T07:49:04.291Z,27.60
2022-09-15T07:51:33.820Z,27.50
2022-09-15T07:54:03.028Z,27.50
2022-09-15T07:56:32.300Z,27.40
2022-09-15T07:59:01.469Z,27.30
2022-09-15T08:01:30.905Z,27.30
2022-09-15T08:04:00.153Z,27.20
2022-09-15T08:06:30.112Z,27.10
2022-09-15T08:09:00.998Z,27.00
2022-09-15T08:11:31.186Z,26.90
2022-09-15T08:14:04.410Z,26.80
2022-09-15T08:16:33.770Z,26.80
2022-09-15T08:19:03.580Z,26.70
2022-09-15T08:21:32.832Z,26.70
2022-09-15T08:24:02.553Z,26.70
2022-09-15T08:26:32.207Z,26.70
2022-09-15T08:29:01.857Z,26.80
2022-09-15T08:31:31.273Z,26.80
2022-09-15T08:34:04.919Z,26.80
2022-09-15T08:36:35.944Z,26.80
2022-09-15T08:39:05.770Z,26.80
2022-09-15T08:41:50.014Z,26.80
2022-09-15T08:45:03.279Z,26.70
2022-09-15T08:47:46.413Z,26.70
2022-09-15T08:50:33.431Z,26.80
2022-09-15T08:53:30.648Z,26.80
2022-09-15T08:56:10.116Z,26.90
2022-09-15T08:58:40.117Z,26.90
2022-09-15T09:02:00.069Z,26.90
2022-09-15T09:05:13.688Z,27.00
2022-09-15T09:08:38.469Z,27.10
2022-09-15T09:11:47.616Z,27.10
2022-09-15T09:15:01.146Z,27.20
2022-09-15T09:18:06.720Z,27.30
2022-09-15T09:21:05.664Z,27.40
2022-09-15T09:23:50.423Z,27.50
2022-09-15T09:26:20.081Z,27.60
2022-09-15T09:29:02.391Z,27.70
2022-09-15T09:31:31.909Z,27.70
2022-09-15T09:34:41.801Z,27.80
2022-09-15T09:37:17.994Z,27.80
2022-09-15T09:39:48.633Z,27.90
2022-09-15T09:42:20.526Z,27.90
2022-09-15T09:44:49.928Z,28.00
2022-09-15T09:47:21.088Z,28.00
2022-09-15T09:49:51.919Z,28.10
2022-09-15T09:52:38.963Z,28.10
2022-09-15T09:55:28.068Z,28.10
2022-09-15T09:58:19.073Z,28.10
2022-09-15T10:00:49.170Z,28.10
2022-09-15T10:03:36.816Z,28.10
2022-09-15T10:06:26.073Z,28.10
2022-09-15T10:09:05.365Z,28.10
2022-09-15T10:12:00.091Z,28.20
2022-09-15T10:14:43.876Z,28.20
2022-09-15T10:17:28.455Z,28.20
2022-09-15T10:19:59.869Z,28.20
2022-09-15T10:22:41.520Z,28.20
2022-09-15T10:25:55.468Z,28.20
2022-09-15T10:28:27.553Z,28.20
2022-09-15T10:31:14.771Z,28.20
2022-09-15T10:33:48.764Z,28.20
2022-09-15T10:36:33.427Z,28.20
2022-09-15T10:39:35.740Z,28.10
2022-09-15T10:42:26.992Z,28.10
2022-09-15T10:45:35.709Z,28.10
2022-09-15T10:48:41.543Z,28.10
2022-09-15T10:51:36.384Z,28.00
2022-09-15T10:54:35.224Z,28.00
2022-09-15T10:57:37.360Z,28.00
2022-09-15T11:00:26.916Z,27.90
2022-09-15T11:03:42.198Z,27.90
2022-09-15T11:06:43.555Z,27.90
2022-09-15T11:09:39.000Z,27.80
2022-09-15T11:13:01.477Z,27.80
2022-09-15T11:16:21.171Z,27.80
2022-09-15T11:19:26.884Z,27.70
2022-09-15T11:22:23.438Z,27.70
2022-09-15T11:25:03.091Z,27.70
2022-09-15T11:27:56.522Z,27.70
2022-09-15T11:30:47.607Z,27.60
2022-09-15T11:33:57.365Z,27.60
2022-09-15T11:37:06.216Z,27.60
2022-09-15T11:40:18.063Z,27.60
2022-09-15T11:43:19.973Z,27.50
2022-09-15T11:45:57.913Z,27.50
2022-09-15T11:48:46.787Z,27.50
2022-09-15T11:51:24.821Z,27.50
2022-09-15T11:54:13.361Z,27.50
2022-09-15T11:56:50.762Z,27.50
2022-09-15T11:59:56.126Z,27.40
2022-09-15T12:02:57.764Z,27.40
2022-09-15T12:05:38.609Z,27.40
2022-09-15T12:09:07.188Z,27.40
2022-09-15T12:11:54.767Z,27.40
2022-09-15T12:14:46.376Z,27.40
2022-09-15T12:17:30.376Z,27.40
2022-09-15T12:20:34.431Z,27.40
2022-09-15T12:23:33.857Z,27.40
2022-09-15T12:26:23.161Z,27.40
2022-09-15T12:29:04.611Z,27.40
2022-09-15T12:31:41.749Z,27.40
2022-09-15T12:34:37.247Z,27.40
2022-09-15T12:37:31.065Z,27.40
2022-09-15T12:40:00.393Z,27.40
2022-09-15T12:42:32.735Z,27.40
2022-09-15T12:45:21.958Z,27.40
2022-09-15T12:48:07.351Z,27.40
2022-09-15T12:50:45.095Z,27.40
2022-09-15T12:53:27.847Z,27.40
2022-09-15T12:56:11.418Z,27.30
2022-09-15T12:58:51.918Z,27.30
2022-09-15T13:01:56.271Z,27.30
2022-09-15T13:04:55.162Z,27.30
2022-09-15T13:07:38.183Z,27.30
2022-09-15T13:10:31.956Z,27.30
2022-09-15T13:13:28.827Z,27.30
2022-09-15T13:16:04.025Z,27.30
2022-09-15T13:18:35.878Z,27.30
2022-09-15T13:21:13.861Z,27.30
2022-09-15T13:23:49.117Z,27.30
2022-09-15T13:26:25.184Z,27.30
2022-09-15T13:28:56.511Z,27.20
2022-09-15T13:31:54.593Z,27.20
2022-09-15T13:35:13.230Z,27.20
2022-09-15T13:38:26.340Z,27.20
2022-09-15T13:41:43.883Z,27.20
2022-09-15T13:45:04.903Z,27.20
2022-09-15T13:48:28.247Z,27.10
2022-09-15T13:51:07.109Z,27.10
2022-09-15T13:54:04.630Z,27.10
2022-09-15T13:56:44.290Z,27.10
2022-09-15T13:59:24.599Z,27.10
2022-09-15T14:01:55.638Z,27.10
2022-09-15T14:04:30.265Z,27.00
2022-09-15T14:07:03.129Z,27.00
2022-09-15T14:09:51.114Z,27.00
2022-09-15T14:12:20.897Z,27.00
2022-09-15T14:14:56.620Z,27.00
2022-09-15T14:17:36.361Z,27.00
2022-09-15T14:20:22.584Z,27.00
2022-09-15T14:22:52.863Z,27.00
2022-09-15T14:28:37.142Z,27.00
2022-09-15T14:31:11.491Z,27.00
2022-09-15T14:33:52.821Z,27.00
2022-09-15T14:36:38.865Z,27.00
2022-09-15T14:39:28.200Z,27.00
2022-09-15T14:42:02.289Z,27.00
2022-09-15T14:47:32.889Z,27.00
2022-09-15T14:50:23.135Z,27.00
2022-09-15T14:53:19.142Z,27.00
2022-09-15T14:56:17.737Z,27.00
2022-09-15T14:59:07.532Z,27.00
2022-09-15T15:02:03.801Z,26.90
2022-09-15T15:04:46.881Z,26.90
2022-09-15T15:07:39.228Z,26.90
2022-09-15T15:10:36.736Z,26.90
2022-09-15T15:13:23.757Z,26.90
2022-09-15T15:16:31.735Z,26.90
2022-09-15T15:18:48.930Z,26.90
2022-09-15T15:21:49.303Z,26.90
2022-09-15T15:24:33.898Z,26.90
2022-09-15T15:27:43.031Z,26.90
2022-09-15T15:30:45.967Z,26.90
2022-09-15T15:33:30.451Z,26.90
2022-09-15T15:36:13.655Z,26.90
2022-09-15T15:38:58.685Z,26.90
2022-09-15T15:41:36.296Z,26.90
2022-09-15T15:44:31.123Z,26.90
2022-09-15T15:47:34.476Z,26.80
2022-09-15T15:50:25.820Z,26.80
2022-09-15T15:52:58.271Z,26.80
2022-09-15T15:55:45.329Z,26.80
2022-09-15T15:58:21.140Z,26.80
2022-09-15T16:01:00.449Z,26.80
2022-09-15T16:03:29.724Z,26.80
2022-09-15T16:06:05.043Z,26.90
2022-09-15T16:08:41.932Z,26.90
2022-09-15T16:11:20.248Z,26.90
2022-09-15T16:13:52.171Z,26.90
2022-09-15T16:16:27.510Z,26.80
2022-09-15T16:19:02.852Z,26.80
2022-09-15T16:21:43.823Z,26.80
2022-09-15T16:24:17.470Z,26.80
2022-09-15T16:26:58.384Z,26.80
2022-09-15T16:29:37.305Z,26.80
2022-09-15T16:32:13.048Z,26.80
2022-09-15T16:34:47.410Z,26.80
2022-09-15T16:37:19.595Z,26.80
2022-09-15T16:39:53.554Z,26.80
2022-09-15T16:42:27.875Z,26.80
2022-09-15T16:45:02.089Z,26.80
2022-09-15T16:47:34.264Z,26.80
2022-09-15T16:50:09.520Z,26.80
2022-09-15T16:52:43.509Z,26.80
2022-09-15T16:55:39.618Z,26.80
2022-09-15T16:58:12.298Z,26.80
2022-09-15T17:00:42.091Z,26.80
2022-09-15T17:03:17.463Z,26.80
2022-09-15T17:05:51.224Z,26.80
2022-09-15T17:08:36.356Z,26.80
2022-09-15T17:11:20.818Z,26.70
2022-09-15T17:13:53.153Z,26.70
2022-09-15T17:16:25.547Z,26.60
2022-09-15T17:18:59.776Z,26.60
2022-09-15T17:21:32.025Z,26.50
2022-09-15T17:24:09.235Z,26.50
2022-09-15T17:26:41.395Z,26.40
2022-09-15T17:29:16.007Z,26.40
2022-09-15T17:31:49.987Z,26.40
2022-09-15T17:34:19.732Z,26.30
2022-09-15T17:36:51.755Z,26.30
2022-09-15T17:39:26.747Z,26.30
2022-09-15T17:44:34.330Z,26.20
2022-09-15T17:47:09.953Z,26.20
2022-09-15T17:49:41.390Z,26.20
2022-09-15T17:52:12.619Z,26.20
2022-09-15T17:54:47.602Z,26.20
2022-09-15T17:57:22.732Z,26.10
2022-09-15T17:59:56.651Z,26.10
2022-09-15T18:02:28.698Z,26.10
2022-09-15T18:05:02.533Z,26.10
2022-09-15T18:07:36.103Z,26.10
2022-09-15T18:10:08.397Z,26.10
2022-09-15T18:12:44.161Z,26.10
2022-09-15T18:15:27.543Z,26.10
2022-09-15T18:18:03.586Z,26.00
2022-09-15T18:20:38.511Z,26.00
2022-09-15T18:23:12.429Z,26.00
2022-09-15T18:25:44.671Z,26.00
2022-09-15T18:28:18.443Z,26.00
2022-09-15T18:30:57.908Z,26.00
2022-09-15T18:33:31.220Z,26.00
2022-09-15T18:36:00.446Z,26.00
2022-09-15T18:38:32.584Z,26.00
2022-09-15T18:41:02.498Z,26.00
2022-09-15T18:43:34.942Z,26.00
2022-09-15T18:46:04.600Z,26.00
2022-09-15T18:48:36.147Z,26.00
2022-09-15T18:51:13.831Z,26.00
2022-09-15T18:53:54.044Z,26.00
2022-09-15T18:56:26.648Z,26.00
2022-09-15T18:59:00.888Z,26.00
2022-09-15T19:01:36.095Z,26.10
2022-09-15T19:04:10.302Z,26.10
2022-09-15T19:06:43.822Z,26.10
2022-09-15T19:09:15.287Z,26.10
2022-09-15T19:11:45.244Z,26.10
2022-09-15T19:14:14.441Z,26.10
2022-09-15T19:16:57.558Z,26.10
2022-09-15T19:19:30.057Z,26.10
2022-09-15T19:22:01.676Z,26.10
2022-09-15T19:24:34.842Z,26.10
2022-09-15T19:27:06.798Z,26.10
2022-09-15T19:29:40.976Z,26.10
2022-09-15T19:32:15.591Z,26.10
2022-09-15T19:34:45.508Z,26.10
2022-09-15T19:37:18.877Z,26.10
2022-09-15T19:39:52.668Z,26.10
2022-09-15T19:42:26.786Z,26.10
2022-09-15T19:45:01.411Z,26.10
2022-09-15T19:47:33.565Z,26.20
2022-09-15T19:50:13.061Z,26.20
2022-09-15T19:52:48.244Z,26.20
2022-09-15T19:55:23.422Z,26.20
2022-09-15T19:57:57.785Z,26.20
2022-09-15T20:00:29.635Z,26.20
2022-09-15T20:03:01.808Z,26.20
2022-09-15T20:05:33.469Z,26.20
2022-09-15T20:08:09.682Z,26.20
2022-09-15T20:10:42.701Z,26.20
2022-09-15T20:13:15.065Z,26.20
2022-09-15T20:16:04.297Z,26.20
2022-09-15T20:18:42.443Z,26.20
2022-09-15T20:21:26.903Z,26.10
2022-09-15T20:24:05.992Z,26.10
2022-09-15T20:26:35.808Z,26.10
2022-09-15T20:29:09.289Z,26.10
2022-09-15T20:31:43.789Z,26.00
2022-09-15T20:34:13.188Z,26.00
2022-09-15T20:36:45.479Z,26.00
2022-09-15T20:39:19.286Z,25.90
2022-09-15T20:41:51.596Z,25.90
2022-09-15T20:44:29.321Z,25.90
2022-09-15T20:47:01.429Z,25.90
2022-09-15T20:49:35.379Z,25.90
2022-09-15T20:52:05.666Z,25.90
2022-09-15T20:54:35.563Z,25.90
2022-09-15T20:57:07.308Z,25.90
2022-09-15T20:59:39.441Z,25.90
2022-09-15T21:02:12.015Z,25.90
2022-09-15T21:04:46.129Z,25.90
2022-09-15T21:07:18.143Z,25.90
2022-09-15T21:09:50.584Z,25.90
2022-09-15T21:12:22.587Z,25.90
2022-09-15T21:14:57.622Z,25.90
2022-09-15T21:17:32.810Z,25.90
2022-09-15T21:20:07.040Z,25.90
2022-09-15T21:22:38.721Z,25.90
2022-09-15T21:25:08.439Z,25.90
2022-09-15T21:27:40.760Z,26.00
2022-09-15T21:30:13.493Z,26.00
2022-09-15T21:32:48.263Z,26.00
2022-09-15T21:35:22.112Z,26.00
2022-09-15T21:37:51.267Z,26.00
2022-09-15T21:40:23.615Z,26.00
2022-09-15T21:42:58.762Z,26.00
2022-09-15T21:45:28.253Z,26.00
2022-09-15T21:48:02.351Z,26.00
2022-09-15T21:50:34.314Z,26.10
2022-09-15T21:53:08.576Z,26.00
2022-09-15T21:55:43.100Z,26.10
2022-09-15T21:58:15.056Z,26.10
2022-09-15T22:00:47.385Z,26.10
2022-09-15T22:03:19.454Z,26.10
2022-09-15T22:05:52.881Z,26.10
2022-09-15T22:08:25.144Z,26.10
2022-09-15T22:11:01.556Z,26.10
2022-09-15T22:13:38.683Z,26.10
2022-09-15T22:16:15.357Z,26.10
2022-09-15T22:18:45.683Z,26.10
2022-09-15T22:21:30.321Z,26.10
2022-09-15T22:24:01.087Z,26.00
2022-09-15T22:26:36.825Z,26.10
2022-09-15T22:29:09.677Z,26.00
2022-09-15T22:31:39.351Z,26.00
2022-09-15T22:34:10.997Z,26.10
2022-09-15T22:36:45.476Z,26.10
2022-09-15T22:39:17.261Z,26.10
2022-09-15T22:41:52.137Z,26.10
2022-09-15T22:44:22.920Z,26.10
2022-09-15T22:46:57.386Z,26.10
2022-09-15T22:49:29.471Z,26.10
2022-09-15T22:52:00.324Z,26.10
2022-09-15T22:54:32.403Z,26.10
2022-09-15T22:57:07.434Z,26.10
2022-09-15T22:59:42.361Z,26.10
2022-09-15T23:02:14.235Z,26.10
2022-09-15T23:04:49.367Z,26.10
2022-09-15T23:07:18.539Z,26.10
2022-09-15T23:09:53.332Z,26.10
2022-09-15T23:12:28.338Z,26.10
2022-09-15T23:15:07.408Z,26.10
2022-09-15T23:17:39.770Z,26.10
2022-09-15T23:20:09.346Z,26.10
2022-09-15T23:22:44.730Z,26.10
2022-09-15T23:25:17.104Z,26.10
2022-09-15T23:27:47.132Z,26.20
2022-09-15T23:30:19.639Z,26.20
2022-09-15T23:32:53.642Z,26.20
2022-09-15T23:35:25.631Z,26.20
2022-09-15T23:37:54.894Z,26.20
2022-09-15T23:40:30.852Z,26.20
2022-09-15T23:43:06.212Z,26.20
2022-09-15T23:45:35.756Z,26.20
2022-09-15T23:48:09.265Z,26.20
2022-09-15T23:50:46.675Z,26.20
2022-09-15T23:53:19.580Z,26.20
2022-09-15T23:55:52.047Z,26.30
2022-09-15T23:58:27.033Z,26.30
